aviador You're here:

KMHL Decoded Metar

in
Report Time2017-08-20 13:35:00
UTC Time2017-08-20 13:40:25
Flight Rules vfr VFR
Wind030° at 05 kt
W.Decomp.*RWY 36: 4.3 kt HW 2.5 kt RCW
RWY 09: 2.5 kt HW 4.3 kt LCW
W.Rank030° ranks 31
Current wind is below 030° avg. (6.6)
Visibility9999 m
Phenomena:N/A
Clouds:N/A
Expected CloudBase > 800 ft AGL from Temp-Dew spread
CeilingNone
Temp22°C
Dew Point20°C (88% RH)
QNH1017 hPa
Raw Report
KMHL 201335Z AUTO 03005KT 10SM CLR 22/20 A3003 RMK AO2 P0001 LTG
DSNT W=

Extra information for KMHL:More info

Social comments